createdAt,value
2018-11-23T00:02:23.054Z,13.10
2018-11-23T00:04:51.191Z,14.53
2018-11-23T00:07:19.358Z,13.97
2018-11-23T00:09:47.461Z,14.27
2018-11-23T00:12:15.450Z,14.13
2018-11-23T00:14:43.889Z,13.00
2018-11-23T00:17:12.042Z,14.57
2018-11-23T00:19:40.123Z,14.00
2018-11-23T00:22:08.213Z,14.13
2018-11-23T00:24:36.225Z,14.07
2018-11-23T00:27:04.368Z,13.57
2018-11-23T00:29:32.451Z,14.20
2018-11-23T00:32:00.974Z,13.53
2018-11-23T00:34:29.095Z,16.23
2018-11-23T00:36:57.401Z,15.53
2018-11-23T00:39:25.520Z,15.23
2018-11-23T00:41:53.568Z,15.60
2018-11-23T00:44:21.596Z,15.47
2018-11-23T00:46:49.764Z,15.87
2018-11-23T00:49:17.808Z,20.00
2018-11-23T00:51:45.843Z,16.23
2018-11-23T00:54:13.926Z,14.97
2018-11-23T00:56:41.955Z,15.17
2018-11-23T00:59:09.972Z,14.93
2018-11-23T01:01:43.339Z,14.90
2018-11-23T01:04:11.442Z,14.80
2018-11-23T01:06:39.497Z,14.70
2018-11-23T01:09:09.001Z,14.40
2018-11-23T01:11:37.093Z,14.67
2018-11-23T01:14:05.237Z,14.60
2018-11-23T01:16:35.379Z,14.77
2018-11-23T01:19:04.514Z,13.77
2018-11-23T01:21:32.646Z,14.77
2018-11-23T01:24:01.175Z,13.97
2018-11-23T01:26:29.188Z,14.00
2018-11-23T01:28:57.253Z,14.07
2018-11-23T01:31:25.353Z,14.37
2018-11-23T01:33:53.389Z,13.80
2018-11-23T01:36:21.502Z,14.30
2018-11-23T01:38:49.535Z,15.87
2018-11-23T01:41:18.654Z,14.63
2018-11-23T01:43:46.728Z,14.53
2018-11-23T01:46:14.800Z,15.43
2018-11-23T01:48:43.108Z,14.20
2018-11-23T01:51:11.230Z,14.17
2018-11-23T01:53:39.219Z,15.17
2018-11-23T01:56:07.265Z,15.03
2018-11-23T01:58:35.303Z,15.07
2018-11-23T02:01:03.385Z,15.93
2018-11-23T02:03:31.470Z,15.20
2018-11-23T02:05:59.900Z,16.07
2018-11-23T02:08:27.994Z,15.27
2018-11-23T02:10:56.020Z,15.67
2018-11-23T02:13:24.067Z,15.80
2018-11-23T02:15:52.138Z,15.63
2018-11-23T02:18:20.640Z,15.23
2018-11-23T02:20:48.738Z,14.80
2018-11-23T02:23:16.762Z,15.07
2018-11-23T02:25:45.264Z,15.40
2018-11-23T02:28:13.304Z,14.17
2018-11-23T02:30:41.378Z,14.87
2018-11-23T02:33:09.476Z,14.53
2018-11-23T02:35:37.543Z,14.73
2018-11-23T02:38:05.579Z,14.80
2018-11-23T02:40:33.737Z,15.23
2018-11-23T02:43:02.287Z,14.37
2018-11-23T02:45:30.321Z,15.03
2018-11-23T02:47:58.381Z,15.83
2018-11-23T02:50:26.429Z,14.70
2018-11-23T02:52:54.483Z,14.93
2018-11-23T02:55:22.560Z,14.57
2018-11-23T02:57:50.710Z,13.73
2018-11-23T03:00:20.609Z,12.13
2018-11-23T03:02:48.617Z,12.70
2018-11-23T03:05:19.434Z,13.30
2018-11-23T03:07:47.566Z,13.60
2018-11-23T03:10:16.898Z,11.63
2018-11-23T03:12:45.878Z,13.37
2018-11-23T03:15:15.827Z,12.57
2018-11-23T03:17:45.355Z,13.10
2018-11-23T03:20:16.523Z,12.90
2018-11-23T03:22:44.617Z,12.07
2018-11-23T03:25:13.175Z,11.30
2018-11-23T03:27:41.315Z,11.47
2018-11-23T03:30:12.541Z,12.33
2018-11-23T03:32:41.394Z,11.80
2018-11-23T03:35:09.433Z,11.90
2018-11-23T03:37:37.494Z,11.50
2018-11-23T03:40:05.546Z,10.73
2018-11-23T03:42:33.642Z,10.93
2018-11-23T03:45:02.032Z,11.43
2018-11-23T03:47:30.093Z,11.03
2018-11-23T03:49:58.270Z,11.80
2018-11-23T03:52:26.950Z,11.20
2018-11-23T03:54:55.022Z,11.03
2018-11-23T03:57:23.043Z,11.40
2018-11-23T03:59:51.155Z,10.63
2018-11-23T04:02:25.242Z,10.43
2018-11-23T04:04:53.327Z,10.47
2018-11-23T04:07:21.365Z,10.90
2018-11-23T04:09:49.517Z,10.30
2018-11-23T04:12:17.642Z,10.73
2018-11-23T04:14:45.705Z,10.13
2018-11-23T04:17:13.945Z,8.80
2018-11-23T04:19:42.115Z,9.33
2018-11-23T04:22:10.215Z,9.23
2018-11-23T04:24:38.346Z,9.23
2018-11-23T04:27:06.478Z,9.43
2018-11-23T04:29:34.526Z,8.80
2018-11-23T04:32:12.709Z,8.47
2018-11-23T04:34:40.851Z,8.97
2018-11-23T04:37:08.882Z,9.37
2018-11-23T04:39:36.974Z,8.40
2018-11-23T04:42:05.210Z,9.03
2018-11-23T04:44:33.306Z,9.00
2018-11-23T04:47:01.463Z,9.27
2018-11-23T04:49:29.524Z,9.33
2018-11-23T04:51:57.574Z,9.23
2018-11-23T04:54:25.696Z,9.00
2018-11-23T04:56:53.837Z,8.60
2018-11-23T04:59:21.946Z,9.67
2018-11-23T05:01:50.075Z,9.40
2018-11-23T05:04:18.193Z,8.80
2018-11-23T05:06:46.248Z,8.27
2018-11-23T05:09:14.364Z,7.80
2018-11-23T05:11:42.425Z,7.83
2018-11-23T05:14:10.517Z,8.00
2018-11-23T05:16:38.604Z,8.70
2018-11-23T05:19:06.746Z,8.23
2018-11-23T05:21:34.904Z,8.57
2018-11-23T05:24:02.986Z,9.57
2018-11-23T05:26:31.107Z,9.13
2018-11-23T05:28:59.222Z,9.20
2018-11-23T05:31:27.343Z,9.33
2018-11-23T05:33:56.038Z,9.13
2018-11-23T05:36:24.190Z,8.20
2018-11-23T05:38:52.289Z,8.83
2018-11-23T05:41:20.303Z,9.27
2018-11-23T05:43:48.360Z,10.20
2018-11-23T05:46:16.450Z,9.40
2018-11-23T05:48:44.999Z,10.13
2018-11-23T05:51:13.058Z,9.93
2018-11-23T05:53:41.170Z,10.73
2018-11-23T05:56:09.220Z,10.80
2018-11-23T05:58:37.310Z,10.10
2018-11-23T06:01:05.362Z,11.23
2018-11-23T06:03:33.876Z,9.87
2018-11-23T06:06:03.088Z,9.77
2018-11-23T06:08:31.204Z,11.03
2018-11-23T06:10:59.470Z,10.93
2018-11-23T06:13:27.874Z,10.67
2018-11-23T06:15:56.039Z,10.93
2018-11-23T06:18:24.259Z,10.73
2018-11-23T06:20:52.467Z,11.88
2018-11-23T06:23:20.789Z,13.28
2018-11-23T06:25:51.699Z,10.93
2018-11-23T06:28:19.852Z,11.07
2018-11-23T06:30:49.120Z,10.67
2018-11-23T06:33:22.678Z,10.00
2018-11-23T06:35:50.890Z,10.17
2018-11-23T06:38:19.117Z,10.47
2018-11-23T06:40:49.980Z,9.80
2018-11-23T06:43:19.745Z,10.50
2018-11-23T06:45:48.031Z,10.13
2018-11-23T06:48:17.503Z,10.03
2018-11-23T06:50:45.775Z,10.33
2018-11-23T06:53:13.970Z,9.80
2018-11-23T06:55:42.142Z,9.97
2018-11-23T06:58:10.237Z,10.17
2018-11-23T07:00:38.672Z,10.50
2018-11-23T07:03:06.883Z,10.27
2018-11-23T07:05:35.016Z,10.60
2018-11-23T07:08:03.354Z,12.37
2018-11-23T07:10:33.707Z,10.60
2018-11-23T07:13:02.000Z,9.53
2018-11-23T07:15:30.201Z,11.10
2018-11-23T07:17:58.364Z,9.33
2018-11-23T07:20:26.519Z,9.87
2018-11-23T07:22:58.190Z,9.97
2018-11-23T07:25:28.457Z,9.47
2018-11-23T07:27:56.983Z,9.77
2018-11-23T07:30:26.353Z,10.83
2018-11-23T07:32:55.824Z,9.73
2018-11-23T07:35:26.058Z,8.70
2018-11-23T07:37:56.341Z,8.43
2018-11-23T07:40:36.531Z,7.77
2018-11-23T07:43:08.910Z,8.70
2018-11-23T07:45:37.056Z,8.53
2018-11-23T07:48:06.355Z,8.53
2018-11-23T07:50:34.614Z,8.40
2018-11-23T07:53:02.866Z,8.30
2018-11-23T07:55:31.246Z,8.40
2018-11-23T07:57:59.357Z,9.57
2018-11-23T08:00:28.142Z,9.37
2018-11-23T08:02:56.362Z,9.20
2018-11-23T08:05:25.627Z,9.23
2018-11-23T08:07:53.831Z,9.60
2018-11-23T08:10:22.888Z,10.23
2018-11-23T08:12:52.047Z,9.27
2018-11-23T08:15:24.827Z,9.70
2018-11-23T08:17:58.535Z,9.50
2018-11-23T08:20:27.867Z,10.10
2018-11-23T08:23:02.205Z,10.50
2018-11-23T08:25:52.505Z,10.23
2018-11-23T08:35:19.374Z,11.13
2018-11-23T08:37:48.139Z,10.50
2018-11-23T09:22:23.530Z,14.23
2018-11-23T10:03:33.036Z,18.90
2018-11-23T10:06:02.331Z,20.53
2018-11-23T10:08:47.290Z,21.23
2018-11-23T10:11:17.063Z,22.00
2018-11-23T10:13:46.178Z,22.47
2018-11-23T10:16:14.249Z,21.07
2018-11-23T10:18:44.112Z,22.27
2018-11-23T10:27:01.406Z,23.30
2018-11-23T10:29:29.416Z,23.43
2018-11-23T10:31:57.572Z,22.53
2018-11-23T10:34:25.678Z,22.60
2018-11-23T10:36:53.675Z,22.27
2018-11-23T10:39:21.858Z,22.60
2018-11-23T10:41:51.005Z,23.33
2018-11-23T10:44:26.697Z,23.10
2018-11-23T10:46:54.891Z,23.27
2018-11-23T10:49:23.143Z,22.30
2018-11-23T10:51:51.397Z,23.13
2018-11-23T10:54:19.658Z,22.33
2018-11-23T10:56:47.904Z,22.97
2018-11-23T10:59:16.334Z,23.53
2018-11-23T11:01:49.970Z,21.60
2018-11-23T11:04:23.553Z,22.60
2018-11-23T11:06:53.236Z,23.27
2018-11-23T11:09:22.033Z,22.03
2018-11-23T11:11:56.554Z,23.47
2018-11-23T11:14:37.194Z,21.87
2018-11-23T11:17:05.687Z,25.30
2018-11-23T11:19:37.779Z,23.27
2018-11-23T11:22:06.020Z,23.90
2018-11-23T11:24:34.646Z,22.30
2018-11-23T11:27:02.908Z,21.33
2018-11-23T11:29:31.727Z,22.93
2018-11-23T11:32:00.693Z,23.87
2018-11-23T11:34:29.858Z,22.07
2018-11-23T11:36:58.311Z,21.90
2018-11-23T11:39:26.850Z,22.40
2018-11-23T11:41:55.258Z,21.67
2018-11-23T11:44:23.576Z,20.50
2018-11-23T11:46:51.783Z,20.23
2018-11-23T11:49:20.198Z,20.07
2018-11-23T11:51:48.426Z,19.80
2018-11-23T11:54:16.484Z,18.90
2018-11-23T11:56:44.785Z,18.57
2018-11-23T11:59:13.218Z,18.33
2018-11-23T12:01:42.491Z,19.27
2018-11-23T12:04:15.819Z,23.77
2018-11-23T12:06:46.218Z,19.63
2018-11-23T12:09:15.027Z,19.70
2018-11-23T12:11:43.455Z,20.00
2018-11-23T12:14:12.377Z,19.93
2018-11-23T12:16:42.020Z,19.70
2018-11-23T12:19:18.908Z,19.27
2018-11-23T12:21:47.642Z,19.70
2018-11-23T12:24:17.083Z,18.13
2018-11-23T12:26:45.662Z,18.70
2018-11-23T12:29:14.101Z,17.90
2018-11-23T12:31:42.354Z,17.43
2018-11-23T12:34:10.652Z,18.30
2018-11-23T12:36:40.310Z,17.70
2018-11-23T12:39:11.866Z,17.27
2018-11-23T12:41:40.247Z,18.47
2018-11-23T12:44:08.524Z,18.53
2018-11-23T12:46:36.751Z,24.37
2018-11-23T12:49:05.282Z,20.50
2018-11-23T12:51:35.628Z,25.37
2018-11-23T12:54:03.901Z,18.80
2018-11-23T12:56:32.102Z,19.97
2018-11-23T12:59:00.493Z,20.60
2018-11-23T13:01:28.818Z,21.00
2018-11-23T13:04:00.268Z,21.37
2018-11-23T13:06:28.492Z,20.63
2018-11-23T13:08:56.885Z,20.47
2018-11-23T13:11:25.104Z,20.90
2018-11-23T13:13:53.276Z,20.07
2018-11-23T13:16:21.405Z,20.77
2018-11-23T13:18:49.700Z,20.23
2018-11-23T13:21:18.296Z,20.30
2018-11-23T13:23:46.484Z,21.37
2018-11-23T13:26:14.946Z,21.37
2018-11-23T13:28:43.082Z,21.10
2018-11-23T13:31:11.293Z,21.70
2018-11-23T13:33:39.398Z,19.37
2018-11-23T13:36:08.515Z,21.40
2018-11-23T13:38:37.123Z,21.63
2018-11-23T13:41:05.780Z,21.17
2018-11-23T13:43:34.339Z,20.63
2018-11-23T13:46:02.526Z,20.77
2018-11-23T13:48:30.742Z,20.77
2018-11-23T13:50:58.999Z,20.70
2018-11-23T13:53:27.213Z,20.57
2018-11-23T13:55:55.591Z,21.00
2018-11-23T13:58:23.772Z,20.33
2018-11-23T14:00:52.047Z,20.43
2018-11-23T14:03:20.238Z,20.93
2018-11-23T14:05:48.404Z,21.27
2018-11-23T14:08:16.612Z,20.33
2018-11-23T14:10:44.737Z,20.90
2018-11-23T14:13:13.069Z,20.17
2018-11-23T14:15:41.231Z,21.03
2018-11-23T14:18:09.470Z,21.00
2018-11-23T14:20:38.100Z,21.27
2018-11-23T14:23:06.322Z,20.97
2018-11-23T14:25:34.578Z,20.20
2018-11-23T14:28:02.967Z,18.93
2018-11-23T14:30:33.412Z,19.87
2018-11-23T14:33:02.527Z,19.27
2018-11-23T14:35:31.798Z,18.23
2018-11-23T14:38:01.009Z,19.23
2018-11-23T14:40:29.190Z,18.57
2018-11-23T14:42:58.565Z,19.33
2018-11-23T14:45:31.856Z,18.50
2018-11-23T14:48:01.045Z,18.63
2018-11-23T14:50:30.462Z,18.00
2018-11-23T14:52:59.274Z,18.63
2018-11-23T14:55:27.694Z,18.97
2018-11-23T14:57:56.635Z,17.73
2018-11-23T15:00:27.028Z,19.60
2018-11-23T15:02:56.428Z,18.87
2018-11-23T15:05:24.602Z,18.07
2018-11-23T15:07:52.911Z,18.83
2018-11-23T15:10:22.467Z,19.53
2018-11-23T15:12:51.893Z,19.73
2018-11-23T15:15:21.581Z,21.00
2018-11-23T15:17:50.636Z,39.93
2018-11-23T15:20:20.704Z,21.50
2018-11-23T15:22:49.738Z,19.10
2018-11-23T15:28:08.084Z,19.83
2018-11-23T15:30:37.368Z,19.73
2018-11-23T15:33:05.896Z,20.00
2018-11-23T15:35:34.724Z,20.27
2018-11-23T15:38:06.014Z,19.10
2018-11-23T15:40:32.340Z,21.93
2018-11-23T15:43:01.881Z,20.00
2018-11-23T15:45:31.006Z,20.03
2018-11-23T15:48:10.352Z,19.67
2018-11-23T15:50:39.916Z,20.23
2018-11-23T15:53:09.794Z,20.30
2018-11-23T15:55:41.755Z,21.07
2018-11-23T15:58:11.320Z,20.07
2018-11-23T16:00:40.628Z,24.33
2018-11-23T16:03:09.783Z,41.93
2018-11-23T16:05:38.245Z,34.57
2018-11-23T16:08:07.290Z,22.07
2018-11-23T16:10:36.598Z,20.50
2018-11-23T16:13:11.203Z,22.10
2018-11-23T16:15:34.557Z,20.30
2018-11-23T16:18:03.825Z,21.03
2018-11-23T16:20:33.527Z,20.90
2018-11-23T16:23:04.049Z,20.77
2018-11-23T16:25:33.217Z,20.20
2018-11-23T16:28:02.682Z,20.00
2018-11-23T16:36:08.128Z,20.00
2018-11-23T16:38:37.495Z,20.53
2018-11-23T16:41:15.244Z,18.23
2018-11-23T16:43:50.929Z,20.10
2018-11-23T16:46:32.906Z,19.03
2018-11-23T16:49:08.152Z,18.83
2018-11-23T16:51:40.042Z,19.23
2018-11-23T16:57:08.394Z,20.27
2018-11-23T16:59:37.671Z,20.30
2018-11-23T17:02:20.944Z,20.60
2018-11-23T17:04:49.124Z,19.43
2018-11-23T17:07:32.568Z,20.17
2018-11-23T17:10:05.663Z,22.13
2018-11-23T17:15:10.205Z,22.43
2018-11-23T17:20:19.526Z,19.40
2018-11-23T17:22:55.691Z,20.10
2018-11-23T17:28:11.352Z,19.83
2018-11-23T17:30:45.531Z,20.10
2018-11-23T17:33:16.442Z,19.77
2018-11-23T17:35:44.907Z,20.20
2018-11-23T17:38:13.612Z,20.07
2018-11-23T17:40:44.480Z,19.80
2018-11-23T17:43:15.717Z,19.50
2018-11-23T17:45:51.447Z,19.80
2018-11-23T17:51:20.366Z,20.20
2018-11-23T17:57:34.945Z,19.20
2018-11-23T18:08:30.296Z,19.53
2018-11-23T18:17:14.065Z,19.57
2018-11-23T18:19:48.415Z,20.37
2018-11-23T18:25:43.174Z,19.30
2018-11-23T18:28:24.984Z,19.00
2018-11-23T18:30:52.994Z,19.97
2018-11-23T18:33:21.137Z,19.30
2018-11-23T18:35:51.651Z,19.87
2018-11-23T18:38:19.954Z,19.70
2018-11-23T18:40:48.465Z,19.50
2018-11-23T18:43:17.780Z,20.57
2018-11-23T18:45:46.526Z,19.27
2018-11-23T18:48:14.901Z,19.50
2018-11-23T18:50:43.051Z,19.07
2018-11-23T18:53:11.368Z,19.50
2018-11-23T18:55:39.425Z,19.50
2018-11-23T18:58:08.177Z,21.07
2018-11-23T19:00:36.195Z,19.83
2018-11-23T19:03:04.274Z,20.80
2018-11-23T19:05:32.832Z,20.43
2018-11-23T19:08:01.454Z,19.13
2018-11-23T19:10:29.769Z,19.50
2018-11-23T19:12:57.872Z,21.73
2018-11-23T19:15:29.855Z,20.13
2018-11-23T19:17:58.125Z,22.13
2018-11-23T19:20:27.279Z,21.07
2018-11-23T19:22:56.395Z,21.60
2018-11-23T19:25:24.488Z,21.43
2018-11-23T19:27:52.631Z,20.17
2018-11-23T19:30:28.549Z,20.23
2018-11-23T19:33:02.640Z,19.33
2018-11-23T19:35:30.756Z,18.00
2018-11-23T19:37:59.096Z,18.60
2018-11-23T19:40:27.180Z,16.97
2018-11-23T19:42:59.090Z,17.17
2018-11-23T19:48:15.671Z,16.23
2018-11-23T19:50:43.884Z,17.77
2018-11-23T19:53:11.911Z,16.73
2018-11-23T19:55:40.511Z,18.23
2018-11-23T19:58:08.785Z,18.50
2018-11-23T20:00:37.332Z,19.10
2018-11-23T20:03:06.036Z,18.47
2018-11-23T20:05:37.497Z,18.90
2018-11-23T20:08:11.929Z,17.73
2018-11-23T20:10:40.240Z,17.03
2018-11-23T20:13:08.502Z,18.17
2018-11-23T20:15:37.233Z,19.33
2018-11-23T20:18:06.784Z,19.83
2018-11-23T20:20:37.888Z,18.60
2018-11-23T20:23:10.070Z,18.97
2018-11-23T20:25:41.220Z,19.23
2018-11-23T20:28:09.974Z,17.87
2018-11-23T20:30:42.519Z,18.53
2018-11-23T20:33:08.728Z,17.20
2018-11-23T20:35:37.427Z,17.50
2018-11-23T20:38:06.192Z,16.97
2018-11-23T20:40:34.908Z,18.40
2018-11-23T20:43:03.684Z,18.13
2018-11-23T20:45:33.349Z,17.63
2018-11-23T20:48:06.650Z,17.80
2018-11-23T20:50:41.238Z,17.67
2018-11-23T20:53:10.322Z,17.93
2018-11-23T20:55:45.546Z,18.37
2018-11-23T20:58:15.626Z,18.67
2018-11-23T21:00:43.809Z,17.87
2018-11-23T21:03:12.084Z,18.20
2018-11-23T21:05:40.379Z,17.93
2018-11-23T21:08:08.718Z,18.10
2018-11-23T21:10:36.801Z,17.93
2018-11-23T21:13:04.906Z,17.70
2018-11-23T21:15:33.105Z,18.93
2018-11-23T21:18:02.064Z,18.17
2018-11-23T21:20:30.433Z,17.80
2018-11-23T21:23:00.810Z,18.23
2018-11-23T21:25:29.025Z,18.80
2018-11-23T21:27:57.093Z,18.93
2018-11-23T21:30:26.337Z,17.70
2018-11-23T21:32:58.014Z,17.93
2018-11-23T21:35:28.795Z,19.10
2018-11-23T21:37:57.213Z,18.73
2018-11-23T21:40:25.571Z,20.23
2018-11-23T21:42:53.800Z,21.13
2018-11-23T21:45:23.225Z,21.03
2018-11-23T21:47:51.698Z,20.63
2018-11-23T21:50:25.369Z,19.40
2018-11-23T21:52:49.642Z,19.93
2018-11-23T21:55:18.759Z,21.67
2018-11-23T21:57:50.752Z,20.20
2018-11-23T22:00:19.172Z,20.43
2018-11-23T22:02:47.734Z,20.60
2018-11-23T22:05:18.672Z,18.63
2018-11-23T22:07:46.856Z,17.97
2018-11-23T22:10:16.156Z,17.30
2018-11-23T22:12:44.358Z,17.73
2018-11-23T22:15:13.252Z,16.87
2018-11-23T22:17:42.774Z,17.37
2018-11-23T22:20:13.555Z,16.90
2018-11-23T22:22:42.830Z,16.60
2018-11-23T22:25:13.368Z,15.47
2018-11-23T22:27:42.163Z,14.67
2018-11-23T22:30:12.345Z,14.67
2018-11-23T22:32:40.936Z,17.00
2018-11-23T22:35:10.097Z,16.07
2018-11-23T22:37:38.253Z,16.97
2018-11-23T22:40:09.417Z,16.60
2018-11-23T22:42:39.374Z,16.43
2018-11-23T22:45:08.598Z,13.97
2018-11-23T22:47:37.019Z,12.73
2018-11-23T22:50:06.594Z,14.23
2018-11-23T22:52:35.203Z,13.60
2018-11-23T22:55:09.625Z,12.80
2018-11-23T22:57:38.547Z,13.03
2018-11-23T23:00:17.480Z,13.53
2018-11-23T23:16:38.402Z,13.37
2018-11-23T23:19:06.752Z,15.17
2018-11-23T23:21:35.164Z,14.70
2018-11-23T23:24:11.335Z,14.80
2018-11-23T23:26:32.075Z,14.90
2018-11-23T23:29:00.236Z,14.87
2018-11-23T23:31:28.633Z,13.53
2018-11-23T23:33:56.809Z,13.17
2018-11-23T23:36:25.499Z,13.40
2018-11-23T23:41:40.682Z,12.03
2018-11-23T23:44:21.689Z,13.50
2018-11-23T23:46:49.784Z,12.50
2018-11-23T23:49:17.870Z,12.43
2018-11-23T23:51:46.049Z,13.20
2018-11-23T23:54:26.622Z,12.37
2018-11-23T23:56:54.640Z,12.60
2018-11-23T23:59:22.711Z,13.80
